sensor_id;sensor_type;location;lat;lon;timestamp;pressure;altitude;pressure_sealevel;temperature;humidity
68320;BME280;55168;51.120;17.024;2023-10-19T00:00:00;99430;;;4.3;100.0
68320;BME280;55168;51.120;17.024;2023-10-19T00:01:00;99430;;;4.3;100.0
68320;BME280;55168;51.120;17.024;2023-10-19T00:02:00;99420;;;4.3;100.0
68320;BME280;55168;51.120;17.024;2023-10-19T00:03:00;99420;;;4.3;100.0
68320;BME280;55168;51.120;17.024;2023-10-19T00:04:00;99420;;;4.3;100.0
68320;BME280;55168;51.120;17.024;2023-10-19T00:05:00;99410;;;4.3;100.0
68320;BME280;55168;51.120;17.024;2023-10-19T00:06:00;99410;;;4.3;100.0
68320;BME280;55168;51.120;17.024;2023-10-19T00:07:00;99410;;;4.3;100.0
68320;BME280;55168;51.120;17.024;2023-10-19T00:08:00;99410;;;4.3;100.0
68320;BME280;55168;51.120;17.024;2023-10-19T00:09:00;99410;;;4.3;100.0
68320;BME280;55168;51.120;17.024;2023-10-19T00:10:00;99410;;;4.3;100.0
68320;BME280;55168;51.120;17.024;2023-10-19T00:11:00;99400;;;4.3;100.0
68320;BME280;55168;51.120;17.024;2023-10-19T00:12:00;99400;;;4.3;100.0
68320;BME280;55168;51.120;17.024;2023-10-19T00:13:00;99400;;;4.3;100.0
68320;BME280;55168;51.120;17.024;2023-10-19T00:14:00;99400;;;4.4;100.0
68320;BME280;55168;51.120;17.024;2023-10-19T00:15:00;99400;;;4.4;100.0
68320;BME280;55168;51.120;17.024;2023-10-19T00:16:00;99400;;;4.4;100.0
68320;BME280;55168;51.120;17.024;2023-10-19T00:17:00;99400;;;4.4;100.0
68320;BME280;55168;51.120;17.024;2023-10-19T00:18:00;99390;;;4.4;100.0
68320;BME280;55168;51.120;17.024;2023-10-19T00:19:00;99390;;;4.4;100.0
68320;BME280;55168;51.120;17.024;2023-10-19T00:20:00;99390;;;4.4;100.0
68320;BME280;55168;51.120;17.024;2023-10-19T00:21:00;99390;;;4.4;100.0
68320;BME280;55168;51.120;17.024;2023-10-19T00:22:00;99390;;;4.3;100.0
68320;BME280;55168;51.120;17.024;2023-10-19T00:23:00;99390;;;4.3;100.0
68320;BME280;55168;51.120;17.024;2023-10-19T00:24:00;99390;;;4.3;100.0
68320;BME280;55168;51.120;17.024;2023-10-19T00:25:00;99390;;;4.3;100.0
68320;BME280;55168;51.120;17.024;2023-10-19T00:26:01;99390;;;4.3;100.0
68320;BME280;55168;51.120;17.024;2023-10-19T00:27:00;99380;;;4.3;100.0
68320;BME280;55168;51.120;17.024;2023-10-19T00:28:00;99380;;;4.3;100.0
68320;BME280;55168;51.120;17.024;2023-10-19T00:29:00;99370;;;4.2;100.0
68320;BME280;55168;51.120;17.024;2023-10-19T00:30:00;99380;;;4.2;100.0
68320;BME280;55168;51.120;17.024;2023-10-19T00:31:00;99370;;;4.2;100.0
68320;BME280;55168;51.120;17.024;2023-10-19T00:32:00;99370;;;4.2;100.0
68320;BME280;55168;51.120;17.024;2023-10-19T00:33:00;99370;;;4.2;100.0
68320;BME280;55168;51.120;17.024;2023-10-19T00:34:00;99370;;;4.2;100.0
68320;BME280;55168;51.120;17.024;2023-10-19T00:35:00;99370;;;4.2;100.0
68320;BME280;55168;51.120;17.024;2023-10-19T00:36:00;99360;;;4.2;100.0
68320;BME280;55168;51.120;17.024;2023-10-19T00:37:00;99360;;;4.2;100.0
68320;BME280;55168;51.120;17.024;2023-10-19T00:38:00;99360;;;4.2;100.0
68320;BME280;55168;51.120;17.024;2023-10-19T00:39:00;99350;;;4.2;100.0
68320;BME280;55168;51.120;17.024;2023-10-19T00:40:00;99350;;;4.2;100.0
68320;BME280;55168;51.120;17.024;2023-10-19T00:41:00;99350;;;4.2;100.0
68320;BME280;55168;51.120;17.024;2023-10-19T00:42:00;99360;;;4.3;100.0
68320;BME280;55168;51.120;17.024;2023-10-19T00:43:03;99350;;;4.3;100.0
68320;BME280;55168;51.120;17.024;2023-10-19T00:44:00;99350;;;4.3;100.0
68320;BME280;55168;51.120;17.024;2023-10-19T00:45:00;99350;;;4.3;100.0
68320;BME280;55168;51.120;17.024;2023-10-19T00:46:00;99350;;;4.3;100.0
68320;BME280;55168;51.120;17.024;2023-10-19T00:47:00;99350;;;4.3;100.0
68320;BME280;55168;51.120;17.024;2023-10-19T00:48:00;99350;;;4.3;100.0
68320;BME280;55168;51.120;17.024;2023-10-19T00:49:00;99340;;;4.3;100.0
68320;BME280;55168;51.120;17.024;2023-10-19T00:50:00;99340;;;4.3;100.0
68320;BME280;55168;51.120;17.024;2023-10-19T00:51:00;99340;;;4.3;100.0
68320;BME280;55168;51.120;17.024;2023-10-19T00:52:00;99330;;;4.3;100.0
68320;BME280;55168;51.120;17.024;2023-10-19T00:53:01;99330;;;4.3;100.0
68320;BME280;55168;51.120;17.024;2023-10-19T00:54:02;99330;;;4.3;100.0
68320;BME280;55168;51.120;17.024;2023-10-19T00:55:00;99330;;;4.3;100.0
68320;BME280;55168;51.120;17.024;2023-10-19T00:56:01;99330;;;4.3;100.0
68320;BME280;55168;51.120;17.024;2023-10-19T00:57:00;99330;;;4.3;100.0
68320;BME280;55168;51.120;17.024;2023-10-19T00:58:00;99320;;;4.3;100.0
68320;BME280;55168;51.120;17.024;2023-10-19T00:59:01;99320;;;4.3;100.0
68320;BME280;55168;51.120;17.024;2023-10-19T01:00:00;99320;;;4.3;100.0
68320;BME280;55168;51.120;17.024;2023-10-19T01:01:00;99320;;;4.3;100.0
68320;BME280;55168;51.120;17.024;2023-10-19T01:02:00;99320;;;4.3;100.0
68320;BME280;55168;51.120;17.024;2023-10-19T01:03:00;99310;;;4.3;100.0
68320;BME280;55168;51.120;17.024;2023-10-19T01:04:00;99310;;;4.3;100.0
68320;BME280;55168;51.120;17.024;2023-10-19T01:05:00;99310;;;4.3;100.0
68320;BME280;55168;51.120;17.024;2023-10-19T01:06:00;99310;;;4.3;100.0
68320;BME280;55168;51.120;17.024;2023-10-19T01:07:00;99300;;;4.3;100.0
68320;BME280;55168;51.120;17.024;2023-10-19T01:08:00;99300;;;4.3;100.0
68320;BME280;55168;51.120;17.024;2023-10-19T01:09:00;99300;;;4.3;100.0
68320;BME280;55168;51.120;17.024;2023-10-19T01:10:01;99300;;;4.3;100.0
68320;BME280;55168;51.120;17.024;2023-10-19T01:11:00;99300;;;4.3;100.0
68320;BME280;55168;51.120;17.024;2023-10-19T01:12:01;99300;;;4.3;100.0
68320;BME280;55168;51.120;17.024;2023-10-19T01:13:00;99300;;;4.3;100.0
68320;BME280;55168;51.120;17.024;2023-10-19T01:14:00;99300;;;4.3;100.0
68320;BME280;55168;51.120;17.024;2023-10-19T01:16:00;99290;;;4.2;100.0
68320;BME280;55168;51.120;17.024;2023-10-19T01:17:00;99290;;;4.2;100.0
68320;BME280;55168;51.120;17.024;2023-10-19T01:18:00;99290;;;4.2;100.0
68320;BME280;55168;51.120;17.024;2023-10-19T01:19:00;99280;;;4.2;100.0
68320;BME280;55168;51.120;17.024;2023-10-19T01:20:00;99280;;;4.2;100.0
68320;BME280;55168;51.120;17.024;2023-10-19T01:21:00;99280;;;4.2;100.0
68320;BME280;55168;51.120;17.024;2023-10-19T01:22:00;99280;;;4.2;100.0
68320;BME280;55168;51.120;17.024;2023-10-19T01:24:00;99280;;;4.1;100.0
68320;BME280;55168;51.120;17.024;2023-10-19T01:25:02;99280;;;4.1;100.0
68320;BME280;55168;51.120;17.024;2023-10-19T01:26:00;99280;;;4.1;100.0
68320;BME280;55168;51.120;17.024;2023-10-19T01:27:00;99280;;;4.2;100.0
68320;BME280;55168;51.120;17.024;2023-10-19T01:28:01;99280;;;4.2;100.0
68320;BME280;55168;51.120;17.024;2023-10-19T01:29:00;99270;;;4.2;100.0
68320;BME280;55168;51.120;17.024;2023-10-19T01:30:00;99270;;;4.2;100.0
68320;BME280;55168;51.120;17.024;2023-10-19T01:31:00;99270;;;4.2;100.0
68320;BME280;55168;51.120;17.024;2023-10-19T01:32:00;99270;;;4.2;100.0
68320;BME280;55168;51.120;17.024;2023-10-19T01:33:00;99270;;;4.2;100.0
68320;BME280;55168;51.120;17.024;2023-10-19T01:34:00;99270;;;4.2;100.0
68320;BME280;55168;51.120;17.024;2023-10-19T01:35:00;99270;;;4.2;100.0
68320;BME280;55168;51.120;17.024;2023-10-19T01:36:00;99260;;;4.2;100.0
68320;BME280;55168;51.120;17.024;2023-10-19T01:37:00;99260;;;4.2;100.0
68320;BME280;55168;51.120;17.024;2023-10-19T01:38:00;99260;;;4.2;100.0
68320;BME280;55168;51.120;17.024;2023-10-19T01:39:00;99260;;;4.2;100.0
68320;BME280;55168;51.120;17.024;2023-10-19T01:40:00;99260;;;4.1;100.0
68320;BME280;55168;51.120;17.024;2023-10-19T01:41:00;99250;;;4.1;100.0
68320;BME280;55168;51.120;17.024;2023-10-19T01:42:00;99250;;;4.1;100.0
68320;BME280;55168;51.120;17.024;2023-10-19T01:43:00;99240;;;4.1;100.0
68320;BME280;55168;51.120;17.024;2023-10-19T01:44:00;99240;;;4.1;100.0
68320;BME280;55168;51.120;17.024;2023-10-19T01:45:00;99240;;;4.1;100.0
68320;BME280;55168;51.120;17.024;2023-10-19T01:46:00;99240;;;4.1;100.0
68320;BME280;55168;51.120;17.024;2023-10-19T01:47:00;99240;;;4.1;100.0
68320;BME280;55168;51.120;17.024;2023-10-19T01:48:00;99240;;;4.1;100.0
68320;BME280;55168;51.120;17.024;2023-10-19T01:49:00;99240;;;4.1;100.0
68320;BME280;55168;51.120;17.024;2023-10-19T01:50:00;99230;;;4.1;100.0
68320;BME280;55168;51.120;17.024;2023-10-19T01:51:02;99220;;;4.1;100.0
68320;BME280;55168;51.120;17.024;2023-10-19T01:52:00;99220;;;4.1;100.0
68320;BME280;55168;51.120;17.024;2023-10-19T01:53:00;99220;;;4.2;100.0
68320;BME280;55168;51.120;17.024;2023-10-19T01:54:00;99220;;;4.1;100.0
68320;BME280;55168;51.120;17.024;2023-10-19T01:55:00;99220;;;4.2;100.0
68320;BME280;55168;51.120;17.024;2023-10-19T01:56:00;99210;;;4.2;100.0
68320;BME280;55168;51.120;17.024;2023-10-19T01:57:00;99210;;;4.2;100.0
68320;BME280;55168;51.120;17.024;2023-10-19T01:58:00;99210;;;4.2;100.0
68320;BME280;55168;51.120;17.024;2023-10-19T01:59:00;99200;;;4.2;100.0
68320;BME280;55168;51.120;17.024;2023-10-19T02:00:00;99200;;;4.1;100.0
68320;BME280;55168;51.120;17.024;2023-10-19T02:01:00;99200;;;4.1;100.0
68320;BME280;55168;51.120;17.024;2023-10-19T02:02:00;99200;;;4.1;100.0
68320;BME280;55168;51.120;17.024;2023-10-19T02:03:00;99200;;;4.1;100.0
68320;BME280;55168;51.120;17.024;2023-10-19T02:04:01;99200;;;4.2;100.0
68320;BME280;55168;51.120;17.024;2023-10-19T02:05:00;99200;;;4.2;100.0
68320;BME280;55168;51.120;17.024;2023-10-19T02:06:00;99200;;;4.2;100.0
68320;BME280;55168;51.120;17.024;2023-10-19T02:07:00;99190;;;4.1;100.0
68320;BME280;55168;51.120;17.024;2023-10-19T02:08:00;99190;;;4.1;100.0
68320;BME280;55168;51.120;17.024;2023-10-19T02:09:02;99180;;;4.1;100.0
68320;BME280;55168;51.120;17.024;2023-10-19T02:10:00;99180;;;4.1;100.0
68320;BME280;55168;51.120;17.024;2023-10-19T02:11:00;99180;;;4.1;100.0
68320;BME280;55168;51.120;17.024;2023-10-19T02:12:00;99180;;;4.1;100.0
68320;BME280;55168;51.120;17.024;2023-10-19T02:13:00;99180;;;4.1;100.0
68320;BME280;55168;51.120;17.024;2023-10-19T02:14:00;99170;;;4.0;100.0
68320;BME280;55168;51.120;17.024;2023-10-19T02:15:00;99170;;;4.0;100.0
68320;BME280;55168;51.120;17.024;2023-10-19T02:16:00;99170;;;4.0;100.0
68320;BME280;55168;51.120;17.024;2023-10-19T02:17:00;99170;;;4.0;100.0
68320;BME280;55168;51.120;17.024;2023-10-19T02:18:01;99170;;;4.0;100.0
68320;BME280;55168;51.120;17.024;2023-10-19T02:19:00;99170;;;4.0;100.0
68320;BME280;55168;51.120;17.024;2023-10-19T02:20:00;99170;;;4.0;100.0
68320;BME280;55168;51.120;17.024;2023-10-19T02:21:01;99170;;;4.0;100.0
68320;BME280;55168;51.120;17.024;2023-10-19T02:22:01;99180;;;4.0;100.0
68320;BME280;55168;51.120;17.024;2023-10-19T02:23:00;99170;;;4.0;100.0
68320;BME280;55168;51.120;17.024;2023-10-19T02:24:00;99170;;;4.0;100.0
68320;BME280;55168;51.120;17.024;2023-10-19T02:25:00;99170;;;4.0;100.0
68320;BME280;55168;51.120;17.024;2023-10-19T02:26:00;99170;;;4.0;100.0
68320;BME280;55168;51.120;17.024;2023-10-19T02:27:00;99170;;;4.0;100.0
68320;BME280;55168;51.120;17.024;2023-10-19T02:28:00;99170;;;4.0;100.0
68320;BME280;55168;51.120;17.024;2023-10-19T02:29:00;99170;;;4.0;100.0
68320;BME280;55168;51.120;17.024;2023-10-19T02:30:00;99170;;;4.0;100.0
68320;BME280;55168;51.120;17.024;2023-10-19T02:31:00;99160;;;4.0;100.0
68320;BME280;55168;51.120;17.024;2023-10-19T02:32:00;99160;;;4.0;100.0
68320;BME280;55168;51.120;17.024;2023-10-19T02:33:00;99160;;;4.0;100.0
68320;BME280;55168;51.120;17.024;2023-10-19T02:34:00;99160;;;4.0;100.0
68320;BME280;55168;51.120;17.024;2023-10-19T02:35:00;99160;;;4.0;100.0
68320;BME280;55168;51.120;17.024;2023-10-19T02:36:00;99160;;;4.0;100.0
68320;BME280;55168;51.120;17.024;2023-10-19T02:37:00;99160;;;4.0;100.0
68320;BME280;55168;51.120;17.024;2023-10-19T02:38:00;99160;;;4.0;100.0
68320;BME280;55168;51.120;17.024;2023-10-19T02:39:00;99160;;;4.0;100.0
68320;BME280;55168;51.120;17.024;2023-10-19T02:40:00;99160;;;4.0;100.0
68320;BME280;55168;51.120;17.024;2023-10-19T02:41:00;99160;;;4.0;100.0
68320;BME280;55168;51.120;17.024;2023-10-19T02:42:00;99160;;;4.0;100.0
68320;BME280;55168;51.120;17.024;2023-10-19T02:43:00;99150;;;4.0;100.0
68320;BME280;55168;51.120;17.024;2023-10-19T02:44:00;99150;;;3.9;100.0
68320;BME280;55168;51.120;17.024;2023-10-19T02:45:00;99150;;;3.9;100.0
68320;BME280;55168;51.120;17.024;2023-10-19T02:46:00;99140;;;3.9;100.0
68320;BME280;55168;51.120;17.024;2023-10-19T02:47:00;99140;;;3.9;100.0
68320;BME280;55168;51.120;17.024;2023-10-19T02:48:00;99140;;;3.9;100.0
68320;BME280;55168;51.120;17.024;2023-10-19T02:49:01;99140;;;3.9;100.0
68320;BME280;55168;51.120;17.024;2023-10-19T02:50:00;99140;;;3.9;100.0
68320;BME280;55168;51.120;17.024;2023-10-19T02:51:00;99140;;;3.9;100.0
68320;BME280;55168;51.120;17.024;2023-10-19T02:52:00;99140;;;3.9;100.0
68320;BME280;55168;51.120;17.024;2023-10-19T02:53:00;99140;;;3.9;100.0
68320;BME280;55168;51.120;17.024;2023-10-19T02:54:00;99130;;;3.9;100.0
68320;BME280;55168;51.120;17.024;2023-10-19T02:55:00;99130;;;3.9;100.0
68320;BME280;55168;51.120;17.024;2023-10-19T02:56:08;99130;;;3.9;100.0
68320;BME280;55168;51.120;17.024;2023-10-19T02:57:00;99130;;;3.9;100.0
68320;BME280;55168;51.120;17.024;2023-10-19T02:58:00;99130;;;3.9;100.0
68320;BME280;55168;51.120;17.024;2023-10-19T02:59:00;99130;;;3.9;100.0
68320;BME280;55168;51.120;17.024;2023-10-19T03:00:00;99130;;;3.9;100.0
68320;BME280;55168;51.120;17.024;2023-10-19T03:01:00;99130;;;3.9;100.0
68320;BME280;55168;51.120;17.024;2023-10-19T03:02:00;99120;;;3.9;100.0
68320;BME280;55168;51.120;17.024;2023-10-19T03:03:00;99120;;;3.9;100.0
68320;BME280;55168;51.120;17.024;2023-10-19T03:04:01;99120;;;3.9;100.0
68320;BME280;55168;51.120;17.024;2023-10-19T03:05:00;99110;;;3.9;100.0
68320;BME280;55168;51.120;17.024;2023-10-19T03:06:00;99110;;;3.9;100.0
68320;BME280;55168;51.120;17.024;2023-10-19T03:07:00;99110;;;3.9;100.0
68320;BME280;55168;51.120;17.024;2023-10-19T03:08:01;99110;;;3.9;100.0
68320;BME280;55168;51.120;17.024;2023-10-19T03:09:03;99100;;;3.9;100.0
68320;BME280;55168;51.120;17.024;2023-10-19T03:10:00;99100;;;3.9;100.0
68320;BME280;55168;51.120;17.024;2023-10-19T03:11:00;99100;;;3.9;100.0
68320;BME280;55168;51.120;17.024;2023-10-19T03:12:00;99110;;;3.9;100.0
68320;BME280;55168;51.120;17.024;2023-10-19T03:13:00;99100;;;3.9;100.0
68320;BME280;55168;51.120;17.024;2023-10-19T03:14:00;99100;;;3.9;100.0
68320;BME280;55168;51.120;17.024;2023-10-19T03:15:00;99090;;;3.9;100.0
68320;BME280;55168;51.120;17.024;2023-10-19T03:16:00;99100;;;3.9;100.0
68320;BME280;55168;51.120;17.024;2023-10-19T03:17:00;99090;;;3.9;100.0
68320;BME280;55168;51.120;17.024;2023-10-19T03:18:00;99090;;;3.9;100.0
68320;BME280;55168;51.120;17.024;2023-10-19T03:19:00;99090;;;3.9;100.0
68320;BME280;55168;51.120;17.024;2023-10-19T03:20:00;99090;;;3.9;100.0
68320;BME280;55168;51.120;17.024;2023-10-19T03:21:00;99080;;;3.9;100.0
68320;BME280;55168;51.120;17.024;2023-10-19T03:22:00;99080;;;4.0;100.0
68320;BME280;55168;51.120;17.024;2023-10-19T03:23:00;99080;;;4.0;100.0
68320;BME280;55168;51.120;17.024;2023-10-19T03:24:00;99080;;;4.0;100.0
68320;BME280;55168;51.120;17.024;2023-10-19T03:25:00;99080;;;4.0;100.0
68320;BME280;55168;51.120;17.024;2023-10-19T03:26:00;99070;;;4.0;100.0
68320;BME280;55168;51.120;17.024;2023-10-19T03:27:00;99080;;;4.0;100.0
68320;BME280;55168;51.120;17.024;2023-10-19T03:28:00;99080;;;4.0;100.0
68320;BME280;55168;51.120;17.024;2023-10-19T03:29:00;99080;;;4.0;100.0
68320;BME280;55168;51.120;17.024;2023-10-19T03:30:00;99080;;;4.0;100.0
68320;BME280;55168;51.120;17.024;2023-10-19T03:31:00;99080;;;4.0;100.0
68320;BME280;55168;51.120;17.024;2023-10-19T03:32:00;99080;;;4.0;100.0
68320;BME280;55168;51.120;17.024;2023-10-19T03:33:00;99090;;;4.0;100.0
68320;BME280;55168;51.120;17.024;2023-10-19T03:34:00;99090;;;4.1;100.0
68320;BME280;55168;51.120;17.024;2023-10-19T03:35:00;99090;;;4.1;100.0
68320;BME280;55168;51.120;17.024;2023-10-19T03:36:00;99090;;;4.1;100.0
68320;BME280;55168;51.120;17.024;2023-10-19T03:37:00;99090;;;4.1;100.0
68320;BME280;55168;51.120;17.024;2023-10-19T03:38:00;99090;;;4.1;100.0
68320;BME280;55168;51.120;17.024;2023-10-19T03:39:00;99090;;;4.1;100.0
68320;BME280;55168;51.120;17.024;2023-10-19T03:40:00;99090;;;4.1;100.0
68320;BME280;55168;51.120;17.024;2023-10-19T03:41:00;99080;;;4.1;100.0
68320;BME280;55168;51.120;17.024;2023-10-19T03:42:00;99080;;;4.1;100.0
68320;BME280;55168;51.120;17.024;2023-10-19T03:43:00;99080;;;4.1;100.0
68320;BME280;55168;51.120;17.024;2023-10-19T03:44:00;99080;;;4.2;100.0
68320;BME280;55168;51.120;17.024;2023-10-19T03:45:00;99080;;;4.2;100.0
68320;BME280;55168;51.120;17.024;2023-10-19T03:46:03;99070;;;4.2;100.0
68320;BME280;55168;51.120;17.024;2023-10-19T03:47:00;99070;;;4.2;100.0
68320;BME280;55168;51.120;17.024;2023-10-19T03:48:00;99060;;;4.2;100.0
68320;BME280;55168;51.120;17.024;2023-10-19T03:49:00;99060;;;4.2;100.0
68320;BME280;55168;51.120;17.024;2023-10-19T03:50:00;99060;;;4.3;100.0
68320;BME280;55168;51.120;17.024;2023-10-19T03:51:00;99050;;;4.3;100.0
68320;BME280;55168;51.120;17.024;2023-10-19T03:52:00;99050;;;4.3;100.0
68320;BME280;55168;51.120;17.024;2023-10-19T03:53:00;99050;;;4.3;100.0
68320;BME280;55168;51.120;17.024;2023-10-19T03:54:00;99050;;;4.3;100.0
68320;BME280;55168;51.120;17.024;2023-10-19T03:55:00;99040;;;4.3;100.0
68320;BME280;55168;51.120;17.024;2023-10-19T03:56:03;99050;;;4.3;100.0
68320;BME280;55168;51.120;17.024;2023-10-19T03:57:00;99050;;;4.3;100.0
68320;BME280;55168;51.120;17.024;2023-10-19T03:58:00;99050;;;4.3;100.0
68320;BME280;55168;51.120;17.024;2023-10-19T03:59:00;99040;;;4.3;100.0
68320;BME280;55168;51.120;17.024;2023-10-19T04:00:00;99040;;;4.4;100.0
68320;BME280;55168;51.120;17.024;2023-10-19T04:01:00;99040;;;4.3;100.0
68320;BME280;55168;51.120;17.024;2023-10-19T04:02:00;99040;;;4.4;100.0
68320;BME280;55168;51.120;17.024;2023-10-19T04:03:00;99030;;;4.4;100.0
68320;BME280;55168;51.120;17.024;2023-10-19T04:04:00;99030;;;4.4;100.0
68320;BME280;55168;51.120;17.024;2023-10-19T04:05:00;99040;;;4.4;100.0
68320;BME280;55168;51.120;17.024;2023-10-19T04:06:00;99030;;;4.4;100.0
68320;BME280;55168;51.120;17.024;2023-10-19T04:07:00;99030;;;4.4;100.0
68320;BME280;55168;51.120;17.024;2023-10-19T04:08:00;99030;;;4.4;100.0
68320;BME280;55168;51.120;17.024;2023-10-19T04:09:00;99030;;;4.4;100.0
68320;BME280;55168;51.120;17.024;2023-10-19T04:10:00;99030;;;4.4;100.0
68320;BME280;55168;51.120;17.024;2023-10-19T04:11:00;99030;;;4.4;100.0
68320;BME280;55168;51.120;17.024;2023-10-19T04:12:00;99030;;;4.4;100.0
68320;BME280;55168;51.120;17.024;2023-10-19T04:13:00;99020;;;4.4;100.0
68320;BME280;55168;51.120;17.024;2023-10-19T04:14:00;99020;;;4.5;100.0
68320;BME280;55168;51.120;17.024;2023-10-19T04:15:00;99020;;;4.5;100.0
68320;BME280;55168;51.120;17.024;2023-10-19T04:16:00;99020;;;4.5;100.0
68320;BME280;55168;51.120;17.024;2023-10-19T04:17:00;99020;;;4.5;100.0
68320;BME280;55168;51.120;17.024;2023-10-19T04:18:00;99020;;;4.5;100.0
68320;BME280;55168;51.120;17.024;2023-10-19T04:19:00;99020;;;4.5;100.0
68320;BME280;55168;51.120;17.024;2023-10-19T04:20:00;99020;;;4.5;100.0
68320;BME280;55168;51.120;17.024;2023-10-19T04:21:00;99020;;;4.5;100.0
68320;BME280;55168;51.120;17.024;2023-10-19T04:22:00;99020;;;4.5;100.0
68320;BME280;55168;51.120;17.024;2023-10-19T04:23:00;99020;;;4.5;100.0
68320;BME280;55168;51.120;17.024;2023-10-19T04:24:00;99010;;;4.5;100.0
68320;BME280;55168;51.120;17.024;2023-10-19T04:25:00;99010;;;4.5;100.0
68320;BME280;55168;51.120;17.024;2023-10-19T04:26:00;99010;;;4.5;100.0
68320;BME280;55168;51.120;17.024;2023-10-19T04:27:00;99010;;;4.5;100.0
68320;BME280;55168;51.120;17.024;2023-10-19T04:28:00;99010;;;4.5;100.0
68320;BME280;55168;51.120;17.024;2023-10-19T04:29:00;99000;;;4.6;100.0
68320;BME280;55168;51.120;17.024;2023-10-19T04:30:00;99000;;;4.6;100.0
68320;BME280;55168;51.120;17.024;2023-10-19T04:31:00;99000;;;4.6;100.0
68320;BME280;55168;51.120;17.024;2023-10-19T04:32:00;99000;;;4.6;100.0
68320;BME280;55168;51.120;17.024;2023-10-19T04:33:00;99000;;;4.6;100.0
68320;BME280;55168;51.120;17.024;2023-10-19T04:34:00;99000;;;4.6;100.0
68320;BME280;55168;51.120;17.024;2023-10-19T04:35:00;99000;;;4.6;100.0
68320;BME280;55168;51.120;17.024;2023-10-19T04:36:00;99000;;;4.6;100.0
68320;BME280;55168;51.120;17.024;2023-10-19T04:37:00;99000;;;4.6;100.0
68320;BME280;55168;51.120;17.024;2023-10-19T04:38:00;99000;;;4.6;100.0
68320;BME280;55168;51.120;17.024;2023-10-19T04:39:00;99000;;;4.6;100.0
68320;BME280;55168;51.120;17.024;2023-10-19T04:40:00;98990;;;4.6;100.0
68320;BME280;55168;51.120;17.024;2023-10-19T04:41:07;98990;;;4.6;100.0
68320;BME280;55168;51.120;17.024;2023-10-19T04:42:00;98990;;;4.6;100.0
68320;BME280;55168;51.120;17.024;2023-10-19T04:43:01;98990;;;4.6;100.0
68320;BME280;55168;51.120;17.024;2023-10-19T04:44:00;98990;;;4.6;100.0
68320;BME280;55168;51.120;17.024;2023-10-19T04:45:00;98990;;;4.6;100.0
68320;BME280;55168;51.120;17.024;2023-10-19T04:46:00;98990;;;4.6;100.0
68320;BME280;55168;51.120;17.024;2023-10-19T04:47:00;98990;;;4.6;100.0
68320;BME280;55168;51.120;17.024;2023-10-19T04:48:00;98990;;;4.6;100.0
68320;BME280;55168;51.120;17.024;2023-10-19T04:49:00;98990;;;4.6;100.0
68320;BME280;55168;51.120;17.024;2023-10-19T04:50:00;98980;;;4.6;100.0
68320;BME280;55168;51.120;17.024;2023-10-19T04:51:00;98980;;;4.6;100.0
68320;BME280;55168;51.120;17.024;2023-10-19T04:52:00;98990;;;4.6;100.0
68320;BME280;55168;51.120;17.024;2023-10-19T04:53:00;98980;;;4.6;100.0
68320;BME280;55168;51.120;17.024;2023-10-19T04:54:00;98980;;;4.6;100.0
68320;BME280;55168;51.120;17.024;2023-10-19T04:55:00;98980;;;4.7;100.0
68320;BME280;55168;51.120;17.024;2023-10-19T04:56:00;98970;;;4.7;100.0
68320;BME280;55168;51.120;17.024;2023-10-19T04:57:00;98970;;;4.7;100.0
68320;BME280;55168;51.120;17.024;2023-10-19T04:58:00;98970;;;4.6;100.0
68320;BME280;55168;51.120;17.024;2023-10-19T04:59:00;98970;;;4.6;100.0
68320;BME280;55168;51.120;17.024;2023-10-19T05:00:00;98970;;;4.6;100.0
68320;BME280;55168;51.120;17.024;2023-10-19T05:01:00;98960;;;4.6;100.0
68320;BME280;55168;51.120;17.024;2023-10-19T05:02:00;98960;;;4.6;100.0
68320;BME280;55168;51.120;17.024;2023-10-19T05:03:00;98960;;;4.6;100.0
68320;BME280;55168;51.120;17.024;2023-10-19T05:04:00;98960;;;4.6;100.0
68320;BME280;55168;51.120;17.024;2023-10-19T05:05:00;98960;;;4.7;100.0
68320;BME280;55168;51.120;17.024;2023-10-19T05:06:00;98960;;;4.7;100.0
68320;BME280;55168;51.120;17.024;2023-10-19T05:07:00;98960;;;4.7;100.0
68320;BME280;55168;51.120;17.024;2023-10-19T05:08:00;98960;;;4.7;100.0
68320;BME280;55168;51.120;17.024;2023-10-19T05:09:00;98960;;;4.6;100.0
68320;BME280;55168;51.120;17.024;2023-10-19T05:10:00;98950;;;4.6;100.0
68320;BME280;55168;51.120;17.024;2023-10-19T05:11:00;98960;;;4.6;100.0
68320;BME280;55168;51.120;17.024;2023-10-19T05:12:00;98950;;;4.6;100.0
68320;BME280;55168;51.120;17.024;2023-10-19T05:13:00;98950;;;4.6;100.0
68320;BME280;55168;51.120;17.024;2023-10-19T05:14:00;98940;;;4.6;100.0
68320;BME280;55168;51.120;17.024;2023-10-19T05:15:00;98940;;;4.6;100.0
68320;BME280;55168;51.120;17.024;2023-10-19T05:16:00;98940;;;4.6;100.0
68320;BME280;55168;51.120;17.024;2023-10-19T05:17:00;98940;;;4.7;100.0
68320;BME280;55168;51.120;17.024;2023-10-19T05:18:02;98930;;;4.7;100.0
68320;BME280;55168;51.120;17.024;2023-10-19T05:19:00;98940;;;4.7;100.0
68320;BME280;55168;51.120;17.024;2023-10-19T05:20:00;98930;;;4.7;100.0
68320;BME280;55168;51.120;17.024;2023-10-19T05:21:00;98930;;;4.7;100.0
68320;BME280;55168;51.120;17.024;2023-10-19T05:22:00;98930;;;4.7;100.0
68320;BME280;55168;51.120;17.024;2023-10-19T05:23:00;98930;;;4.7;100.0
68320;BME280;55168;51.120;17.024;2023-10-19T05:24:00;98930;;;4.7;100.0
68320;BME280;55168;51.120;17.024;2023-10-19T05:25:00;98930;;;4.7;100.0
68320;BME280;55168;51.120;17.024;2023-10-19T05:26:00;98930;;;4.7;100.0
68320;BME280;55168;51.120;17.024;2023-10-19T05:27:00;98920;;;4.7;100.0
68320;BME280;55168;51.120;17.024;2023-10-19T05:28:00;98920;;;4.7;100.0
68320;BME280;55168;51.120;17.024;2023-10-19T05:29:00;98920;;;4.7;100.0
68320;BME280;55168;51.120;17.024;2023-10-19T05:30:00;98910;;;4.7;100.0
68320;BME280;55168;51.120;17.024;2023-10-19T05:31:00;98910;;;4.7;100.0
68320;BME280;55168;51.120;17.024;2023-10-19T05:32:00;98910;;;4.7;100.0
68320;BME280;55168;51.120;17.024;2023-10-19T05:33:00;98920;;;4.7;100.0
68320;BME280;55168;51.120;17.024;2023-10-19T05:34:00;98920;;;4.7;100.0
68320;BME280;55168;51.120;17.024;2023-10-19T05:35:00;98920;;;4.6;100.0
68320;BME280;55168;51.120;17.024;2023-10-19T05:36:00;98920;;;4.6;100.0
68320;BME280;55168;51.120;17.024;2023-10-19T05:37:00;98910;;;4.6;100.0